sensor_id;sensor_type;location;lat;lon;timestamp;pressure;altitude;pressure_sealevel;temperature;humidity
19114;BME280;9689;51.052;13.772;2023-04-02T00:00:15;99493.53;;;7.71;88.26
19114;BME280;9689;51.052;13.772;2023-04-02T00:05:36;99489.31;;;7.67;87.88
19114;BME280;9689;51.052;13.772;2023-04-02T00:10:51;99512.81;;;7.59;87.53
19114;BME280;9689;51.052;13.772;2023-04-02T00:15:56;99509.56;;;7.50;87.23
19114;BME280;9689;51.052;13.772;2023-04-02T00:21:09;99536.75;;;7.27;87.48
19114;BME280;9689;51.052;13.772;2023-04-02T00:26:29;99545.69;;;7.11;88.52
19114;BME280;9689;51.052;13.772;2023-04-02T00:31:34;99538.81;;;7.10;87.55
19114;BME280;9689;51.052;13.772;2023-04-02T00:36:42;99560.22;;;7.20;87.83
19114;BME280;9689;51.052;13.772;2023-04-02T00:41:47;99565.47;;;7.17;87.93
19114;BME280;9689;51.052;13.772;2023-04-02T00:46:54;99569.84;;;7.15;87.26
19114;BME280;9689;51.052;13.772;2023-04-02T00:52:02;99581.31;;;7.00;87.32
19114;BME280;9689;51.052;13.772;2023-04-02T00:57:13;99577.28;;;6.82;87.45
19114;BME280;9689;51.052;13.772;2023-04-02T01:02:24;99588.66;;;6.73;87.15
19114;BME280;9689;51.052;13.772;2023-04-02T01:07:56;99605.13;;;6.69;87.43
19114;BME280;9689;51.052;13.772;2023-04-02T01:13:12;99595.97;;;6.47;86.44
19114;BME280;9689;51.052;13.772;2023-04-02T01:18:29;99616.56;;;6.55;86.60
19114;BME280;9689;51.052;13.772;2023-04-02T01:23:47;99637.59;;;6.30;86.69
19114;BME280;9689;51.052;13.772;2023-04-02T01:29:00;99651.53;;;6.20;86.13
19114;BME280;9689;51.052;13.772;2023-04-02T01:34:06;99669.78;;;6.09;86.82
19114;BME280;9689;51.052;13.772;2023-04-02T01:39:18;99679.47;;;5.90;86.73
19114;BME280;9689;51.052;13.772;2023-04-02T01:44:31;99685.66;;;5.73;87.67
19114;BME280;9689;51.052;13.772;2023-04-02T01:49:38;99699.50;;;5.68;87.06
19114;BME280;9689;51.052;13.772;2023-04-02T01:54:44;99707.22;;;5.72;88.61
19114;BME280;9689;51.052;13.772;2023-04-02T01:59:49;99714.13;;;5.70;87.56
19114;BME280;9689;51.052;13.772;2023-04-02T02:04:52;99727.03;;;5.71;87.62
19114;BME280;9689;51.052;13.772;2023-04-02T02:09:55;99727.16;;;5.59;87.97
19114;BME280;9689;51.052;13.772;2023-04-02T02:15:00;99742.03;;;5.34;88.39
19114;BME280;9689;51.052;13.772;2023-04-02T02:20:04;99760.25;;;5.14;87.58
19114;BME280;9689;51.052;13.772;2023-04-02T02:25:13;99768.75;;;5.27;88.00
19114;BME280;9689;51.052;13.772;2023-04-02T02:30:21;99778.28;;;5.23;87.01
19114;BME280;9689;51.052;13.772;2023-04-02T02:35:28;99785.22;;;5.15;86.75
19114;BME280;9689;51.052;13.772;2023-04-02T02:40:40;99788.59;;;5.20;85.61
19114;BME280;9689;51.052;13.772;2023-04-02T02:45:48;99791.13;;;5.29;86.24
19114;BME280;9689;51.052;13.772;2023-04-02T02:50:52;99800.66;;;5.20;85.50
19114;BME280;9689;51.052;13.772;2023-04-02T02:55:56;99817.06;;;5.14;85.71
19114;BME280;9689;51.052;13.772;2023-04-02T03:01:09;99824.88;;;5.00;85.62
19114;BME280;9689;51.052;13.772;2023-04-02T03:06:16;99831.00;;;4.81;85.92
19114;BME280;9689;51.052;13.772;2023-04-02T03:11:31;99844.75;;;4.89;85.83
19114;BME280;9689;51.052;13.772;2023-04-02T03:16:43;99858.47;;;5.00;86.49
19114;BME280;9689;51.052;13.772;2023-04-02T03:21:51;99869.63;;;5.05;85.16
19114;BME280;9689;51.052;13.772;2023-04-02T03:26:58;99886.00;;;4.94;85.66
19114;BME280;9689;51.052;13.772;2023-04-02T03:32:06;99892.16;;;4.50;86.05
19114;BME280;9689;51.052;13.772;2023-04-02T03:37:16;99904.22;;;4.49;85.79
19114;BME280;9689;51.052;13.772;2023-04-02T03:42:22;99921.44;;;4.40;85.28
19114;BME280;9689;51.052;13.772;2023-04-02T03:47:33;99933.50;;;4.35;86.50
19114;BME280;9689;51.052;13.772;2023-04-02T03:52:37;99941.22;;;4.25;86.27
19114;BME280;9689;51.052;13.772;2023-04-02T03:57:50;99951.53;;;4.33;85.96
19114;BME280;9689;51.052;13.772;2023-04-02T04:03:04;99967.00;;;4.15;85.50
19114;BME280;9689;51.052;13.772;2023-04-02T04:08:15;99980.75;;;4.21;86.04
19114;BME280;9689;51.052;13.772;2023-04-02T04:13:21;99990.22;;;4.25;85.63
19114;BME280;9689;51.052;13.772;2023-04-02T04:18:33;100007.41;;;4.22;85.22
19114;BME280;9689;51.052;13.772;2023-04-02T04:23:46;100021.16;;;4.21;84.97
19114;BME280;9689;51.052;13.772;2023-04-02T04:28:58;100030.63;;;4.20;85.33
19114;BME280;9689;51.052;13.772;2023-04-02T04:34:13;100040.06;;;4.24;85.54
19114;BME280;9689;51.052;13.772;2023-04-02T04:39:19;100040.09;;;4.21;86.06
19114;BME280;9689;51.052;13.772;2023-04-02T04:44:27;100053.78;;;3.96;87.19
19114;BME280;9689;51.052;13.772;2023-04-02T04:49:41;100068.38;;;3.86;87.16
19114;BME280;9689;51.052;13.772;2023-04-02T04:54:48;100090.66;;;3.75;86.62
19114;BME280;9689;51.052;13.772;2023-04-02T04:59:57;100088.94;;;3.82;86.85
19114;BME280;9689;51.052;13.772;2023-04-02T05:05:16;100107.88;;;3.82;84.81
19114;BME280;9689;51.052;13.772;2023-04-02T05:10:27;100125.03;;;3.74;83.69
19114;BME280;9689;51.052;13.772;2023-04-02T05:15:36;100134.47;;;3.74;83.98
19114;BME280;9689;51.052;13.772;2023-04-02T05:20:49;100149.00;;;3.58;82.92
19114;BME280;9689;51.052;13.772;2023-04-02T05:26:03;100153.28;;;3.62;82.99
19114;BME280;9689;51.052;13.772;2023-04-02T05:31:09;100152.44;;;3.60;83.34
19114;BME280;9689;51.052;13.772;2023-04-02T05:36:21;100179.06;;;3.60;83.97
19114;BME280;9689;51.052;13.772;2023-04-02T05:41:30;100185.13;;;3.70;84.90
19114;BME280;9689;51.052;13.772;2023-04-02T05:46:44;100198.75;;;3.55;85.45
19114;BME280;9689;51.052;13.772;2023-04-02T05:51:51;100211.38;;;3.20;86.06
19114;BME280;9689;51.052;13.772;2023-04-02T05:57:00;100208.00;;;3.29;87.31
19114;BME280;9689;51.052;13.772;2023-04-02T06:02:10;100228.34;;;2.97;85.63
19114;BME280;9689;51.052;13.772;2023-04-02T06:07:22;100238.81;;;3.14;86.29
19114;BME280;9689;51.052;13.772;2023-04-02T06:12:33;100247.25;;;3.02;86.12
19114;BME280;9689;51.052;13.772;2023-04-02T06:17:44;100260.97;;;2.98;86.02
19114;BME280;9689;51.052;13.772;2023-04-02T06:22:52;100266.16;;;3.04;85.97
19114;BME280;9689;51.052;13.772;2023-04-02T06:27:59;100277.28;;;3.00;86.90
19114;BME280;9689;51.052;13.772;2023-04-02T06:33:03;100285.06;;;3.04;86.84
19114;BME280;9689;51.052;13.772;2023-04-02T06:38:15;100295.41;;;3.10;86.79
19114;BME280;9689;51.052;13.772;2023-04-02T06:43:26;100310.16;;;3.30;86.54
19114;BME280;9689;51.052;13.772;2023-04-02T06:48:58;100315.09;;;3.05;84.66
19114;BME280;9689;51.052;13.772;2023-04-02T06:54:12;100333.03;;;2.99;84.39
19114;BME280;9689;51.052;13.772;2023-04-02T06:59:19;100345.19;;;3.11;84.55
19114;BME280;9689;51.052;13.772;2023-04-02T07:04:22;100352.13;;;3.18;83.67
19114;BME280;9689;51.052;13.772;2023-04-02T07:09:27;100362.31;;;3.07;83.32
19114;BME280;9689;51.052;13.772;2023-04-02T07:14:31;100377.59;;;2.94;83.76
19114;BME280;9689;51.052;13.772;2023-04-02T07:19:33;100383.94;;;3.22;82.49
19114;BME280;9689;51.052;13.772;2023-04-02T07:24:36;100377.84;;;3.14;82.63
19114;BME280;9689;51.052;13.772;2023-04-02T07:29:37;100395.03;;;3.16;83.05
19114;BME280;9689;51.052;13.772;2023-04-02T07:34:41;100398.59;;;3.29;83.17
19114;BME280;9689;51.052;13.772;2023-04-02T07:39:43;100412.31;;;3.28;83.12
19114;BME280;9689;51.052;13.772;2023-04-02T07:44:51;100422.03;;;3.52;81.76
19114;BME280;9689;51.052;13.772;2023-04-02T07:49:57;100416.84;;;3.49;80.73
19114;BME280;9689;51.052;13.772;2023-04-02T07:54:59;100432.50;;;3.70;83.38
19114;BME280;9689;51.052;13.772;2023-04-02T08:00:01;100452.75;;;3.36;81.14
19114;BME280;9689;51.052;13.772;2023-04-02T08:05:12;100459.44;;;3.21;80.60
19114;BME280;9689;51.052;13.772;2023-04-02T08:10:19;100467.16;;;3.19;80.59
19114;BME280;9689;51.052;13.772;2023-04-02T08:15:21;100477.72;;;3.40;79.86
19114;BME280;9689;51.052;13.772;2023-04-02T08:20:26;100479.56;;;3.51;78.88
19114;BME280;9689;51.052;13.772;2023-04-02T08:25:28;100491.50;;;3.46;79.17
19114;BME280;9689;51.052;13.772;2023-04-02T08:30:29;100499.22;;;3.46;78.20
19114;BME280;9689;51.052;13.772;2023-04-02T08:35:31;100506.00;;;3.36;76.00
19114;BME280;9689;51.052;13.772;2023-04-02T08:40:37;100515.47;;;3.38;76.27
19114;BME280;9689;51.052;13.772;2023-04-02T08:45:46;100534.31;;;3.34;75.99
19114;BME280;9689;51.052;13.772;2023-04-02T08:50:50;100548.13;;;3.41;77.23
19114;BME280;9689;51.052;13.772;2023-04-02T08:55:56;100546.75;;;3.67;76.31
19114;BME280;9689;51.052;13.772;2023-04-02T09:01:05;100554.28;;;3.52;73.88
19114;BME280;9689;51.052;13.772;2023-04-02T09:06:11;100567.06;;;3.45;73.16
19114;BME280;9689;51.052;13.772;2023-04-02T09:11:22;100565.25;;;3.37;73.92
19114;BME280;9689;51.052;13.772;2023-04-02T09:16:38;100570.63;;;3.54;72.62
19114;BME280;9689;51.052;13.772;2023-04-02T09:21:43;100577.56;;;3.58;72.68
19114;BME280;9689;51.052;13.772;2023-04-02T09:26:47;100576.50;;;3.44;72.19
19114;BME280;9689;51.052;13.772;2023-04-02T09:31:54;100595.28;;;3.37;73.39
19114;BME280;9689;51.052;13.772;2023-04-02T09:37:06;100608.69;;;3.75;74.86
19114;BME280;9689;51.052;13.772;2023-04-02T09:42:28;100630.09;;;3.68;75.76
19114;BME280;9689;51.052;13.772;2023-04-02T09:47:30;100635.13;;;3.62;77.90
19114;BME280;9689;51.052;13.772;2023-04-02T09:52:33;100636.94;;;3.67;76.14
19114;BME280;9689;51.052;13.772;2023-04-02T09:57:36;100649.63;;;3.52;75.51
19114;BME280;9689;51.052;13.772;2023-04-02T10:02:38;100660.13;;;3.66;75.30
19114;BME280;9689;51.052;13.772;2023-04-02T10:07:43;100654.91;;;3.63;74.26
19114;BME280;9689;51.052;13.772;2023-04-02T10:12:48;100662.59;;;3.60;73.51
19114;BME280;9689;51.052;13.772;2023-04-02T10:17:56;100677.13;;;3.55;73.30
19114;BME280;9689;51.052;13.772;2023-04-02T10:23:00;100691.00;;;3.64;73.04
19114;BME280;9689;51.052;13.772;2023-04-02T10:28:12;100694.44;;;3.63;72.84
19114;BME280;9689;51.052;13.772;2023-04-02T10:33:26;100697.34;;;3.86;71.78
19114;BME280;9689;51.052;13.772;2023-04-02T10:38:36;100707.56;;;3.82;72.16
19114;BME280;9689;51.052;13.772;2023-04-02T10:44:02;100712.78;;;3.85;72.49
19114;BME280;9689;51.052;13.772;2023-04-02T10:49:24;100722.84;;;4.32;69.82
19114;BME280;9689;51.052;13.772;2023-04-02T10:54:37;100723.78;;;4.37;70.08
19114;BME280;9689;51.052;13.772;2023-04-02T10:59:45;100735.75;;;4.32;70.19
19114;BME280;9689;51.052;13.772;2023-04-02T11:04:49;100742.41;;;4.16;70.69
19114;BME280;9689;51.052;13.772;2023-04-02T11:09:53;100740.53;;;4.03;69.74
19114;BME280;9689;51.052;13.772;2023-04-02T11:14:58;100749.25;;;4.12;70.56
19114;BME280;9689;51.052;13.772;2023-04-02T11:20:40;100754.88;;;4.49;69.05
19114;BME280;9689;51.052;13.772;2023-04-02T11:25:42;100764.94;;;4.26;69.92
19114;BME280;9689;51.052;13.772;2023-04-02T11:30:46;100767.75;;;4.46;69.93
19114;BME280;9689;51.052;13.772;2023-04-02T11:35:48;100770.44;;;4.55;69.24
19114;BME280;9689;51.052;13.772;2023-04-02T11:40:50;100782.59;;;4.64;68.96
19114;BME280;9689;51.052;13.772;2023-04-02T11:45:56;100788.41;;;4.49;69.46
19114;BME280;9689;51.052;13.772;2023-04-02T11:50:59;100795.38;;;4.54;69.36
19114;BME280;9689;51.052;13.772;2023-04-02T11:56:16;100793.56;;;4.47;69.80
19114;BME280;9689;51.052;13.772;2023-04-02T12:12:27;100802.09;;;5.19;65.10
19114;BME280;9689;51.052;13.772;2023-04-02T12:17:34;100807.75;;;4.81;66.88
19114;BME280;9689;51.052;13.772;2023-04-02T12:22:38;100815.66;;;4.95;65.92
19114;BME280;9689;51.052;13.772;2023-04-02T12:27:40;100816.84;;;5.29;65.17
19114;BME280;9689;51.052;13.772;2023-04-02T12:32:47;100822.47;;;5.78;64.54
19114;BME280;9689;51.052;13.772;2023-04-02T12:37:51;100830.06;;;5.61;63.16
19114;BME280;9689;51.052;13.772;2023-04-02T12:42:52;100831.25;;;5.94;62.25
19114;BME280;9689;51.052;13.772;2023-04-02T12:47:56;100831.22;;;5.91;61.13
19114;BME280;9689;51.052;13.772;2023-04-02T12:52:59;100834.59;;;5.90;62.14
19114;BME280;9689;51.052;13.772;2023-04-02T12:58:02;100841.25;;;5.59;62.33
19114;BME280;9689;51.052;13.772;2023-04-02T13:03:19;100844.16;;;5.91;61.79
19114;BME280;9689;51.052;13.772;2023-04-02T13:08:23;100846.88;;;6.14;60.11
19114;BME280;9689;51.052;13.772;2023-04-02T13:13:28;100841.50;;;5.86;61.13
19114;BME280;9689;51.052;13.772;2023-04-02T13:18:32;100870.50;;;5.53;61.09
19114;BME280;9689;51.052;13.772;2023-04-02T13:23:36;100872.06;;;5.37;62.09
19114;BME280;9689;51.052;13.772;2023-04-02T13:28:37;100870.22;;;5.27;63.61
19114;BME280;9689;51.052;13.772;2023-04-02T13:33:39;100882.06;;;5.04;64.73
19114;BME280;9689;51.052;13.772;2023-04-02T13:38:42;100888.94;;;5.05;64.38
19114;BME280;9689;51.052;13.772;2023-04-02T13:43:48;100901.31;;;5.32;62.79
19114;BME280;9689;51.052;13.772;2023-04-02T13:48:53;100902.19;;;5.35;62.11
19114;BME280;9689;51.052;13.772;2023-04-02T13:53:56;100909.06;;;5.32;62.32
19114;BME280;9689;51.052;13.772;2023-04-02T13:58:59;100920.91;;;5.13;63.09
19114;BME280;9689;51.052;13.772;2023-04-02T14:04:03;100927.81;;;5.14;64.04
19114;BME280;9689;51.052;13.772;2023-04-02T14:09:11;100928.38;;;4.93;63.99
19114;BME280;9689;51.052;13.772;2023-04-02T14:14:29;100940.59;;;5.05;64.50
19114;BME280;9689;51.052;13.772;2023-04-02T14:19:43;100941.41;;;5.02;64.39
19114;BME280;9689;51.052;13.772;2023-04-02T14:24:55;100951.03;;;5.13;63.48
19114;BME280;9689;51.052;13.772;2023-04-02T14:30:03;100956.66;;;4.82;64.18
19114;BME280;9689;51.052;13.772;2023-04-02T14:35:16;100948.75;;;4.70;64.32
19114;BME280;9689;51.052;13.772;2023-04-02T14:40:29;100959.81;;;4.62;64.11
19114;BME280;9689;51.052;13.772;2023-04-02T14:45:41;100963.31;;;4.67;64.35
19114;BME280;9689;51.052;13.772;2023-04-02T14:50:50;100971.63;;;4.47;63.29
19114;BME280;9689;51.052;13.772;2023-04-02T14:55:56;100966.75;;;4.67;64.50
19114;BME280;9689;51.052;13.772;2023-04-02T15:01:02;100981.56;;;4.79;62.80
19114;BME280;9689;51.052;13.772;2023-04-02T15:06:16;100976.56;;;4.90;62.52
19114;BME280;9689;51.052;13.772;2023-04-02T15:11:21;100973.28;;;5.03;62.99
19114;BME280;9689;51.052;13.772;2023-04-02T15:16:25;100971.50;;;4.97;61.91
19114;BME280;9689;51.052;13.772;2023-04-02T15:21:43;100976.69;;;4.99;61.62
19114;BME280;9689;51.052;13.772;2023-04-02T15:27:04;100980.00;;;4.89;62.95
19114;BME280;9689;51.052;13.772;2023-04-02T15:32:29;100993.03;;;4.99;62.44
19114;BME280;9689;51.052;13.772;2023-04-02T15:37:44;100992.28;;;5.05;62.24
19114;BME280;9689;51.052;13.772;2023-04-02T15:42:56;101004.47;;;5.15;61.92
19114;BME280;9689;51.052;13.772;2023-04-02T15:53:39;101012.41;;;5.30;65.86
19114;BME280;9689;51.052;13.772;2023-04-02T15:59:15;101014.78;;;5.14;62.89
19114;BME280;9689;51.052;13.772;2023-04-02T16:04:33;101018.22;;;5.13;62.50
19114;BME280;9689;51.052;13.772;2023-04-02T16:09:47;101025.88;;;5.06;63.32
19114;BME280;9689;51.052;13.772;2023-04-02T16:14:55;101039.78;;;5.16;62.99
19114;BME280;9689;51.052;13.772;2023-04-02T16:20:15;101036.38;;;5.20;63.21
19114;BME280;9689;51.052;13.772;2023-04-02T16:25:23;101046.78;;;5.23;62.88
19114;BME280;9689;51.052;13.772;2023-04-02T16:30:34;101049.16;;;5.09;63.67
19114;BME280;9689;51.052;13.772;2023-04-02T16:35:46;101052.75;;;5.21;63.13
19114;BME280;9689;51.052;13.772;2023-04-02T16:41:02;101065.66;;;5.21;63.57
19114;BME280;9689;51.052;13.772;2023-04-02T16:46:16;101072.63;;;5.25;62.86
19114;BME280;9689;51.052;13.772;2023-04-02T16:51:42;101067.97;;;5.02;63.50
19114;BME280;9689;51.052;13.772;2023-04-02T16:56:54;101083.44;;;4.98;63.77
19114;BME280;9689;51.052;13.772;2023-04-02T17:02:15;101079.16;;;5.00;63.16
19114;BME280;9689;51.052;13.772;2023-04-02T17:07:30;101086.03;;;4.99;63.49
19114;BME280;9689;51.052;13.772;2023-04-02T17:12:40;101097.19;;;4.97;63.13
19114;BME280;9689;51.052;13.772;2023-04-02T17:17:44;101098.13;;;5.03;64.09
19114;BME280;9689;51.052;13.772;2023-04-02T17:22:46;101112.72;;;5.00;63.64
19114;BME280;9689;51.052;13.772;2023-04-02T17:27:51;101110.84;;;4.90;63.81
19114;BME280;9689;51.052;13.772;2023-04-02T17:32:54;101107.53;;;4.97;63.93
19114;BME280;9689;51.052;13.772;2023-04-02T17:37:59;101116.00;;;4.88;64.06
19114;BME280;9689;51.052;13.772;2023-04-02T17:43:14;101125.50;;;4.91;63.53
19114;BME280;9689;51.052;13.772;2023-04-02T17:48:28;101115.19;;;4.92;64.67
19114;BME280;9689;51.052;13.772;2023-04-02T17:53:38;101121.94;;;4.84;64.17
19114;BME280;9689;51.052;13.772;2023-04-02T17:59:08;101121.91;;;4.82;64.67
19114;BME280;9689;51.052;13.772;2023-04-02T18:04:27;101136.44;;;4.76;65.36
19114;BME280;9689;51.052;13.772;2023-04-02T18:09:38;101152.06;;;4.85;65.17
19114;BME280;9689;51.052;13.772;2023-04-02T18:14:57;101145.13;;;4.81;65.32
19114;BME280;9689;51.052;13.772;2023-04-02T18:20:09;101154.53;;;4.77;65.98
19114;BME280;9689;51.052;13.772;2023-04-02T18:25:26;101166.41;;;4.68;65.27
19114;BME280;9689;51.052;13.772;2023-04-02T18:30:36;101165.63;;;4.72;65.67
19114;BME280;9689;51.052;13.772;2023-04-02T18:35:47;101175.13;;;4.73;66.76
19114;BME280;9689;51.052;13.772;2023-04-02T18:41:02;101181.25;;;4.79;66.50
19114;BME280;9689;51.052;13.772;2023-04-02T18:46:14;101186.41;;;4.78;66.73
19114;BME280;9689;51.052;13.772;2023-04-02T18:51:22;101196.59;;;4.70;66.43
19114;BME280;9689;51.052;13.772;2023-04-02T18:56:24;101199.19;;;4.72;66.54
19114;BME280;9689;51.052;13.772;2023-04-02T19:01:31;101215.47;;;4.68;66.85
19114;BME280;9689;51.052;13.772;2023-04-02T19:06:36;101219.84;;;4.70;67.77
19114;BME280;9689;51.052;13.772;2023-04-02T19:11:39;101225.75;;;4.66;67.41
19114;BME280;9689;51.052;13.772;2023-04-02T19:17:01;101224.06;;;4.67;67.56
19114;BME280;9689;51.052;13.772;2023-04-02T19:22:25;101235.97;;;4.60;68.12
19114;BME280;9689;51.052;13.772;2023-04-02T19:27:34;101233.59;;;4.71;67.98
19114;BME280;9689;51.052;13.772;2023-04-02T19:32:44;101238.69;;;4.68;67.73
19114;BME280;9689;51.052;13.772;2023-04-02T19:37:53;101242.91;;;4.61;68.32
19114;BME280;9689;51.052;13.772;2023-04-02T19:42:58;101247.09;;;4.56;69.07
19114;BME280;9689;51.052;13.772;2023-04-02T19:48:05;101245.38;;;4.57;68.70
19114;BME280;9689;51.052;13.772;2023-04-02T19:53:09;101250.53;;;4.57;69.02
19114;BME280;9689;51.052;13.772;2023-04-02T19:58:17;101249.47;;;4.47;69.35
19114;BME280;9689;51.052;13.772;2023-04-02T20:03:23;101253.84;;;4.51;68.92
19114;BME280;9689;51.052;13.772;2023-04-02T20:08:24;101258.22;;;4.53;68.85
19114;BME280;9689;51.052;13.772;2023-04-02T20:13:24;101262.47;;;4.51;68.21
19114;BME280;9689;51.052;13.772;2023-04-02T20:18:27;101264.31;;;4.57;67.93
19114;BME280;9689;51.052;13.772;2023-04-02T20:23:28;101267.88;;;4.64;67.96
19114;BME280;9689;51.052;13.772;2023-04-02T20:28:29;101271.13;;;4.53;68.02
19114;BME280;9689;51.052;13.772;2023-04-02T20:33:31;101274.66;;;4.59;68.17
19114;BME280;9689;51.052;13.772;2023-04-02T20:38:32;101278.00;;;4.53;68.03
19114;BME280;9689;51.052;13.772;2023-04-02T20:43:35;101281.50;;;4.57;67.87
19114;BME280;9689;51.052;13.772;2023-04-02T20:48:40;101300.28;;;4.49;67.72
19114;BME280;9689;51.052;13.772;2023-04-02T20:53:41;101301.31;;;4.58;67.36
19114;BME280;9689;51.052;13.772;2023-04-02T20:58:45;101308.00;;;4.48;67.31
19114;BME280;9689;51.052;13.772;2023-04-02T21:03:48;101308.81;;;4.45;67.33
19114;BME280;9689;51.052;13.772;2023-04-02T21:08:49;101309.50;;;4.37;67.12
19114;BME280;9689;51.052;13.772;2023-04-02T21:13:50;101306.91;;;4.37;66.32
19114;BME280;9689;51.052;13.772;2023-04-02T21:18:53;101300.06;;;4.39;65.90
19114;BME280;9689;51.052;13.772;2023-04-02T21:23:55;101306.03;;;4.36;65.06
19114;BME280;9689;51.052;13.772;2023-04-02T21:28:56;101320.81;;;4.43;65.29
19114;BME280;9689;51.052;13.772;2023-04-02T21:33:58;101323.25;;;4.36;64.49
19114;BME280;9689;51.052;13.772;2023-04-02T21:39:00;101317.28;;;4.40;64.78
19114;BME280;9689;51.052;13.772;2023-04-02T21:44:03;101318.88;;;4.33;64.36
19114;BME280;9689;51.052;13.772;2023-04-02T21:49:06;101322.28;;;4.32;64.65
19114;BME280;9689;51.052;13.772;2023-04-02T21:54:08;101329.97;;;4.29;64.52
19114;BME280;9689;51.052;13.772;2023-04-02T21:59:10;101331.56;;;4.24;64.27
19114;BME280;9689;51.052;13.772;2023-04-02T22:04:15;101337.34;;;4.14;64.37
19114;BME280;9689;51.052;13.772;2023-04-02T22:09:19;101338.84;;;4.04;63.50
19114;BME280;9689;51.052;13.772;2023-04-02T22:14:20;101347.63;;;4.11;64.21
19114;BME280;9689;51.052;13.772;2023-04-02T22:19:23;101350.88;;;4.04;64.11
19114;BME280;9689;51.052;13.772;2023-04-02T22:24:24;101359.22;;;3.92;64.24
19114;BME280;9689;51.052;13.772;2023-04-02T22:29:26;101355.66;;;3.88;64.21
19114;BME280;9689;51.052;13.772;2023-04-02T22:34:29;101356.41;;;3.83;64.16
19114;BME280;9689;51.052;13.772;2023-04-02T22:39:29;101360.84;;;3.90;63.43
19114;BME280;9689;51.052;13.772;2023-04-02T22:44:30;101370.94;;;3.81;64.24
19114;BME280;9689;51.052;13.772;2023-04-02T22:49:32;101374.19;;;3.72;64.11
19114;BME280;9689;51.052;13.772;2023-04-02T22:54:33;101380.03;;;3.65;64.49
19114;BME280;9689;51.052;13.772;2023-04-02T22:59:34;101385.94;;;3.61;63.72
19114;BME280;9689;51.052;13.772;2023-04-02T23:04:36;101388.28;;;3.52;63.42
19114;BME280;9689;51.052;13.772;2023-04-02T23:09:36;101393.28;;;3.47;63.38
19114;BME280;9689;51.052;13.772;2023-04-02T23:14:37;101396.59;;;3.42;63.45
19114;BME280;9689;51.052;13.772;2023-04-02T23:19:39;101398.97;;;3.34;62.19
19114;BME280;9689;51.052;13.772;2023-04-02T23:24:40;101398.66;;;3.22;62.52
19114;BME280;9689;51.052;13.772;2023-04-02T23:29:41;101403.69;;;3.19;62.40
19114;BME280;9689;51.052;13.772;2023-04-02T23:34:43;101405.28;;;3.14;62.08
19114;BME280;9689;51.052;13.772;2023-04-02T23:39:43;101404.97;;;3.03;62.47
19114;BME280;9689;51.052;13.772;2023-04-02T23:44:44;101404.84;;;2.98;61.72
19114;BME280;9689;51.052;13.772;2023-04-02T23:49:46;101399.44;;;2.89;61.73
19114;BME280;9689;51.052;13.772;2023-04-02T23:54:47;101396.09;;;2.93;60.37
19114;BME280;9689;51.052;13.772;2023-04-02T23:59:47;101406.91;;;2.80;60.73
